createdAt,value
2022-08-04T00:00:20.663Z,2.30
2022-08-04T00:03:19.548Z,2.20
2022-08-04T00:06:15.881Z,2.00
2022-08-04T00:09:15.738Z,2.20
2022-08-04T00:12:05.026Z,2.10
2022-08-04T00:14:55.810Z,2.73
2022-08-04T00:17:47.642Z,2.60
2022-08-04T00:20:41.005Z,2.10
2022-08-04T00:24:10.522Z,2.17
2022-08-04T00:26:40.383Z,2.22
2022-08-04T00:29:29.301Z,2.40
2022-08-04T00:32:34.432Z,2.30
2022-08-04T00:35:22.900Z,2.30
2022-08-04T00:38:12.147Z,2.22
2022-08-04T00:41:12.194Z,2.10
2022-08-04T00:44:24.260Z,2.35
2022-08-04T00:47:38.135Z,2.17
2022-08-04T00:51:04.242Z,2.10
2022-08-04T00:54:03.530Z,2.15
2022-08-04T00:57:33.424Z,2.30
2022-08-04T01:00:23.468Z,2.20
2022-08-04T01:03:20.024Z,2.60
2022-08-04T01:06:16.491Z,2.60
2022-08-04T01:09:28.744Z,2.08
2022-08-04T01:12:48.384Z,2.13
2022-08-04T01:15:59.309Z,2.37
2022-08-04T01:18:59.070Z,2.75
2022-08-04T01:22:36.681Z,2.50
2022-08-04T01:26:42.496Z,2.07
2022-08-04T01:29:46.971Z,2.20
2022-08-04T01:32:40.162Z,2.30
2022-08-04T01:35:46.736Z,2.40
2022-08-04T01:38:38.453Z,2.20
2022-08-04T01:41:32.883Z,2.30
2022-08-04T01:44:21.748Z,2.00
2022-08-04T01:47:11.748Z,2.20
2022-08-04T01:50:09.068Z,2.20
2022-08-04T01:52:57.623Z,2.10
2022-08-04T01:55:54.139Z,2.53
2022-08-04T01:58:43.832Z,2.07
2022-08-04T02:01:38.393Z,2.20
2022-08-04T02:04:27.770Z,2.40
2022-08-04T02:07:29.709Z,2.00
2022-08-04T02:10:29.160Z,2.43
2022-08-04T02:13:24.823Z,2.40
2022-08-04T02:16:23.393Z,2.40
2022-08-04T02:19:23.357Z,1.70
2022-08-04T02:22:19.442Z,2.30
2022-08-04T02:25:10.179Z,2.20
2022-08-04T02:28:13.433Z,2.80
2022-08-04T02:31:28.669Z,2.33
2022-08-04T02:34:30.337Z,2.40
2022-08-04T02:37:22.748Z,2.30
2022-08-04T02:40:13.423Z,2.10
2022-08-04T02:43:05.910Z,2.00
2022-08-04T02:45:58.000Z,2.20
2022-08-04T02:48:49.665Z,2.10
2022-08-04T02:51:39.783Z,1.80
2022-08-04T02:54:37.054Z,2.50
2022-08-04T02:57:28.857Z,2.53
2022-08-04T03:00:19.969Z,2.10
2022-08-04T03:03:23.226Z,2.60
2022-08-04T03:06:55.582Z,2.50
2022-08-04T03:10:17.091Z,2.57
2022-08-04T03:13:53.539Z,2.53
2022-08-04T03:17:33.179Z,2.10
2022-08-04T03:21:02.807Z,2.47
2022-08-04T03:24:43.472Z,2.60
2022-08-04T03:28:38.793Z,2.37
2022-08-04T03:32:06.100Z,2.00
2022-08-04T03:35:22.612Z,2.40
2022-08-04T03:38:56.875Z,2.20
2022-08-04T03:42:27.556Z,2.50
2022-08-04T03:46:22.071Z,2.53
2022-08-04T03:49:51.497Z,2.30
2022-08-04T03:53:32.399Z,1.90
2022-08-04T03:57:13.816Z,2.40
2022-08-04T04:00:10.782Z,2.07
2022-08-04T04:03:42.511Z,2.23
2022-08-04T04:07:14.273Z,2.37
2022-08-04T04:10:40.246Z,1.90
2022-08-04T04:14:01.335Z,1.93
2022-08-04T04:17:10.506Z,2.30
2022-08-04T04:20:43.250Z,2.30
2022-08-04T04:23:58.420Z,2.50
2022-08-04T04:26:59.274Z,2.97
2022-08-04T04:30:09.305Z,2.57
2022-08-04T04:33:26.851Z,2.73
2022-08-04T04:36:27.668Z,2.57
2022-08-04T04:39:22.497Z,2.30
2022-08-04T04:42:37.626Z,2.40
2022-08-04T04:45:31.080Z,2.10
2022-08-04T04:48:31.841Z,2.60
2022-08-04T04:51:30.064Z,2.53
2022-08-04T04:54:29.918Z,2.47
2022-08-04T04:57:20.156Z,2.50
2022-08-04T05:00:39.450Z,3.00
2022-08-04T05:04:02.412Z,2.83
2022-08-04T05:07:23.313Z,2.83
2022-08-04T05:10:32.093Z,2.70
2022-08-04T05:14:34.477Z,3.07
2022-08-04T05:16:48.563Z,3.30
2022-08-04T05:20:01.963Z,3.10
2022-08-04T05:22:58.202Z,2.50
2022-08-04T05:25:59.779Z,3.20
2022-08-04T05:28:54.973Z,2.70
2022-08-04T05:31:51.242Z,3.20
2022-08-04T05:34:44.039Z,3.27
2022-08-04T05:37:33.422Z,3.37
2022-08-04T05:40:24.584Z,3.40
2022-08-04T05:43:13.932Z,3.50
2022-08-04T05:46:02.340Z,3.30
2022-08-04T05:48:51.718Z,3.30
2022-08-04T05:51:40.304Z,2.80
2022-08-04T05:54:29.323Z,3.10
2022-08-04T05:57:18.506Z,3.20
2022-08-04T06:00:38.516Z,3.10
2022-08-04T06:03:17.889Z,3.23
2022-08-04T06:06:06.591Z,3.33
2022-08-04T06:08:54.525Z,2.93
2022-08-04T06:12:02.004Z,2.70
2022-08-04T06:14:59.432Z,2.83
2022-08-04T06:19:56.299Z,3.10
2022-08-04T06:20:59.830Z,3.00
2022-08-04T06:23:53.196Z,3.10
2022-08-04T06:26:47.134Z,3.10
2022-08-04T06:29:38.701Z,3.37
2022-08-04T06:32:40.035Z,2.73
2022-08-04T06:35:31.487Z,2.70
2022-08-04T06:38:21.186Z,2.40
2022-08-04T06:41:09.454Z,2.72
2022-08-04T06:44:00.961Z,2.92
2022-08-04T06:46:49.473Z,2.50
2022-08-04T06:49:44.179Z,2.60
2022-08-04T06:52:48.873Z,2.28
2022-08-04T06:55:36.555Z,2.58
2022-08-04T06:58:25.453Z,2.70
2022-08-04T07:01:14.613Z,2.65
2022-08-04T07:04:02.287Z,2.50
2022-08-04T07:06:51.496Z,2.30
2022-08-04T07:09:39.378Z,2.50
2022-08-04T07:12:28.974Z,2.28
2022-08-04T07:15:19.253Z,1.90
2022-08-04T07:18:07.036Z,1.80
2022-08-04T07:20:54.774Z,2.08
2022-08-04T07:23:43.675Z,2.10
2022-08-04T07:26:31.723Z,2.03
2022-08-04T07:29:19.942Z,2.20
2022-08-04T07:32:11.003Z,1.90
2022-08-04T07:34:59.352Z,1.63
2022-08-04T07:37:47.462Z,1.40
2022-08-04T07:40:38.299Z,1.80
2022-08-04T07:43:27.590Z,1.90
2022-08-04T07:46:14.858Z,1.80
2022-08-04T07:49:03.662Z,1.80
2022-08-04T07:51:52.964Z,2.00
2022-08-04T07:54:41.843Z,2.05
2022-08-04T07:57:41.027Z,2.22
2022-08-04T08:00:29.546Z,1.65
2022-08-04T08:03:17.961Z,1.40
2022-08-04T08:06:31.674Z,1.73
2022-08-04T08:09:21.249Z,1.73
2022-08-04T08:12:38.286Z,1.63
2022-08-04T08:15:21.261Z,1.42
2022-08-04T08:18:08.610Z,1.65
2022-08-04T08:20:56.275Z,2.00
2022-08-04T08:23:43.821Z,1.50
2022-08-04T08:26:32.100Z,1.60
2022-08-04T08:29:21.083Z,1.60
2022-08-04T08:32:13.235Z,1.23
2022-08-04T08:35:01.022Z,1.58
2022-08-04T08:37:58.195Z,2.00
2022-08-04T08:40:53.660Z,1.67
2022-08-04T08:44:07.671Z,1.70
2022-08-04T08:47:16.155Z,1.63
2022-08-04T08:50:22.254Z,1.60
2022-08-04T08:53:27.760Z,1.65
2022-08-04T08:56:30.952Z,1.63
2022-08-04T08:59:45.017Z,1.50
2022-08-04T09:03:03.935Z,1.70
2022-08-04T09:06:18.685Z,2.00
2022-08-04T09:09:29.960Z,1.80
2022-08-04T09:12:26.084Z,1.83
2022-08-04T09:15:18.307Z,1.77
2022-08-04T09:18:23.464Z,1.90
2022-08-04T09:21:19.977Z,1.70
2022-08-04T09:24:35.405Z,1.77
2022-08-04T09:27:23.451Z,1.60
2022-08-04T09:30:13.914Z,1.95
2022-08-04T09:33:17.453Z,1.60
2022-08-04T09:36:26.765Z,1.70
2022-08-04T09:39:25.889Z,1.23
2022-08-04T09:42:29.284Z,1.45
2022-08-04T09:45:26.656Z,1.50
2022-08-04T09:48:38.143Z,1.50
2022-08-04T09:51:57.764Z,1.30
2022-08-04T09:54:53.270Z,1.75
2022-08-04T09:57:56.667Z,1.70
2022-08-04T10:00:49.623Z,1.42
2022-08-04T10:03:42.839Z,1.58
2022-08-04T10:06:44.578Z,1.52
2022-08-04T10:09:51.892Z,1.50
2022-08-04T10:12:53.650Z,1.45
2022-08-04T10:15:48.626Z,2.00
2022-08-04T10:18:52.045Z,1.50
2022-08-04T10:22:27.972Z,1.40
2022-08-04T10:25:37.531Z,1.30
2022-08-04T10:28:28.107Z,1.40
2022-08-04T10:31:29.104Z,1.52
2022-08-04T10:34:23.194Z,1.55
2022-08-04T10:37:23.273Z,1.35
2022-08-04T10:40:40.556Z,1.50
2022-08-04T10:43:46.213Z,1.27
2022-08-04T10:46:41.745Z,1.30
2022-08-04T10:49:38.278Z,1.52
2022-08-04T10:52:34.834Z,1.60
2022-08-04T10:56:07.288Z,1.45
2022-08-04T10:58:47.557Z,1.42
2022-08-04T11:02:02.010Z,1.50
2022-08-04T11:05:02.401Z,1.50
2022-08-04T11:07:54.263Z,1.50
2022-08-04T11:10:48.850Z,1.27
2022-08-04T11:13:47.198Z,1.70
2022-08-04T11:16:40.993Z,1.30
2022-08-04T11:19:44.891Z,1.40
2022-08-04T11:22:47.452Z,1.33
2022-08-04T11:25:49.760Z,1.30
2022-08-04T11:28:59.269Z,1.33
2022-08-04T11:31:52.364Z,1.33
2022-08-04T11:34:52.612Z,1.00
2022-08-04T11:37:51.145Z,1.02
2022-08-04T11:40:55.829Z,1.40
2022-08-04T11:44:01.784Z,1.48
2022-08-04T11:46:55.099Z,1.30
2022-08-04T11:49:57.324Z,1.00
2022-08-04T11:52:47.969Z,1.33
2022-08-04T11:56:07.670Z,1.13
2022-08-04T11:58:50.161Z,1.20
2022-08-04T12:01:57.449Z,1.33
2022-08-04T12:04:58.269Z,1.20
2022-08-04T12:08:04.766Z,1.60
2022-08-04T12:11:07.854Z,1.05
2022-08-04T12:14:09.554Z,1.50
2022-08-04T12:17:02.287Z,1.00
2022-08-04T12:20:04.181Z,1.00
2022-08-04T12:23:05.594Z,1.10
2022-08-04T12:26:02.039Z,1.00
2022-08-04T12:29:11.577Z,1.10
2022-08-04T12:32:08.373Z,1.17
2022-08-04T12:35:11.135Z,0.95
2022-08-04T12:38:06.660Z,1.02
2022-08-04T12:40:59.000Z,1.10
2022-08-04T12:43:47.481Z,1.17
2022-08-04T12:46:36.992Z,1.67
2022-08-04T12:49:28.010Z,1.00
2022-08-04T12:52:18.817Z,0.98
2022-08-04T12:55:09.461Z,1.10
2022-08-04T12:58:03.341Z,1.25
2022-08-04T13:00:57.028Z,0.90
2022-08-04T13:03:49.309Z,1.10
2022-08-04T13:06:38.729Z,1.05
2022-08-04T13:09:34.553Z,1.00
2022-08-04T13:12:32.882Z,1.02
2022-08-04T13:15:24.997Z,1.02
2022-08-04T13:18:15.153Z,1.10
2022-08-04T13:24:31.042Z,0.90
2022-08-04T13:27:23.938Z,1.00
2022-08-04T13:30:22.615Z,1.10
2022-08-04T13:30:24.090Z,1.13
2022-08-04T13:33:11.345Z,1.02
2022-08-04T13:36:00.728Z,0.98
2022-08-04T13:38:53.235Z,0.90
2022-08-04T13:41:46.700Z,1.10
2022-08-04T13:44:55.499Z,1.00
2022-08-04T13:47:45.029Z,1.23
2022-08-04T13:50:35.370Z,1.13
2022-08-04T13:53:26.647Z,1.17
2022-08-04T13:56:18.275Z,1.00
2022-08-04T13:59:12.360Z,1.00
2022-08-04T14:02:07.090Z,1.20
2022-08-04T14:04:59.184Z,1.25
2022-08-04T14:07:51.451Z,1.00
2022-08-04T14:10:41.026Z,1.20
2022-08-04T14:13:41.248Z,1.00
2022-08-04T14:16:30.235Z,1.60
2022-08-04T14:19:19.370Z,1.20
2022-08-04T14:22:07.584Z,1.00
2022-08-04T14:24:58.966Z,0.90
2022-08-04T14:27:51.125Z,1.00
2022-08-04T14:30:39.594Z,1.10
2022-08-04T14:34:02.509Z,1.00
2022-08-04T14:36:56.069Z,1.20
2022-08-04T14:40:07.846Z,1.10
2022-08-04T14:42:57.525Z,0.85
2022-08-04T14:45:54.684Z,1.02
2022-08-04T14:49:03.342Z,1.15
2022-08-04T14:51:59.225Z,0.90
2022-08-04T14:54:47.423Z,1.13
2022-08-04T14:58:35.315Z,0.90
2022-08-04T15:00:47.169Z,1.20
2022-08-04T15:03:35.956Z,1.00
2022-08-04T15:06:38.799Z,1.00
2022-08-04T15:09:28.196Z,1.20
2022-08-04T15:12:16.521Z,1.10
2022-08-04T15:15:26.727Z,1.13
2022-08-04T15:18:14.142Z,1.10
2022-08-04T15:21:04.065Z,1.10
2022-08-04T15:23:52.191Z,1.10
2022-08-04T15:26:49.272Z,1.20
2022-08-04T15:30:00.106Z,0.98
2022-08-04T15:32:54.335Z,0.95
2022-08-04T15:35:44.791Z,1.20
2022-08-04T15:38:40.552Z,1.05
2022-08-04T15:41:46.327Z,1.20
2022-08-04T15:46:41.887Z,1.20
2022-08-04T15:48:33.689Z,1.25
2022-08-04T15:51:32.753Z,1.58
2022-08-04T15:54:30.697Z,1.10
2022-08-04T15:57:59.434Z,1.20
2022-08-04T16:01:17.799Z,1.60
2022-08-04T16:04:23.574Z,1.27
2022-08-04T16:07:10.932Z,1.40
2022-08-04T16:10:38.233Z,1.13
2022-08-04T16:13:25.902Z,1.25
2022-08-04T16:16:30.892Z,1.30
2022-08-04T16:19:47.573Z,1.30
2022-08-04T16:22:39.033Z,1.02
2022-08-04T16:25:46.432Z,1.20
2022-08-04T16:28:43.095Z,1.30
2022-08-04T16:31:34.334Z,1.48
2022-08-04T16:34:47.887Z,1.40
2022-08-04T16:37:35.587Z,1.30
2022-08-04T16:40:41.062Z,1.10
2022-08-04T16:43:31.037Z,1.40
2022-08-04T16:47:08.356Z,1.30
2022-08-04T16:50:03.322Z,1.30
2022-08-04T16:52:53.114Z,1.35
2022-08-04T16:55:40.831Z,1.02
2022-08-04T16:58:32.543Z,1.13
2022-08-04T17:01:22.012Z,1.23
2022-08-04T17:04:30.869Z,1.15
2022-08-04T17:07:18.300Z,1.30
2022-08-04T17:10:06.549Z,1.38
2022-08-04T17:13:08.552Z,1.50
2022-08-04T17:16:08.392Z,1.35
2022-08-04T17:18:59.020Z,1.30
2022-08-04T17:21:47.975Z,1.25
2022-08-04T17:24:38.206Z,1.30
2022-08-04T17:28:08.843Z,1.42
2022-08-04T17:30:33.654Z,1.35
2022-08-04T17:33:21.251Z,1.40
2022-08-04T17:39:24.410Z,1.48
2022-08-04T17:42:12.218Z,1.30
2022-08-04T17:45:48.734Z,1.30
2022-08-04T17:48:24.212Z,1.67
2022-08-04T17:51:17.474Z,1.60
2022-08-04T17:54:06.849Z,1.33
2022-08-04T17:56:58.027Z,1.40
2022-08-04T17:59:55.664Z,1.52
2022-08-04T18:02:55.022Z,1.42
2022-08-04T18:06:01.762Z,1.30
2022-08-04T18:08:57.329Z,1.20
2022-08-04T18:11:58.919Z,1.40
2022-08-04T18:14:49.093Z,1.33
2022-08-04T18:18:21.217Z,1.30
2022-08-04T18:20:47.416Z,1.40
2022-08-04T18:23:50.334Z,1.13
2022-08-04T18:26:38.993Z,1.40
2022-08-04T18:29:31.633Z,1.30
2022-08-04T18:32:20.682Z,1.38
2022-08-04T18:35:16.271Z,1.40
2022-08-04T18:38:22.337Z,1.52
2022-08-04T18:41:13.112Z,1.55
2022-08-04T18:44:00.695Z,1.58
2022-08-04T18:46:55.709Z,1.30
2022-08-04T18:51:01.880Z,1.50
2022-08-04T18:52:53.031Z,1.30
2022-08-04T18:55:56.756Z,1.48
2022-08-04T18:58:45.753Z,1.20
2022-08-04T19:02:16.203Z,1.58
2022-08-04T19:04:43.428Z,1.40
2022-08-04T19:08:11.135Z,1.52
2022-08-04T19:10:44.870Z,1.42
2022-08-04T19:13:34.900Z,1.52
2022-08-04T19:16:23.450Z,1.55
2022-08-04T19:19:10.858Z,1.35
2022-08-04T19:22:02.504Z,1.50
2022-08-04T19:24:54.541Z,1.30
2022-08-04T19:27:43.291Z,1.63
2022-08-04T19:30:30.654Z,1.55
2022-08-04T19:33:18.080Z,1.60
2022-08-04T19:36:12.854Z,1.60
2022-08-04T19:39:11.896Z,1.50
2022-08-04T19:42:04.346Z,1.75
2022-08-04T19:44:54.086Z,1.65
2022-08-04T19:48:18.338Z,1.45
2022-08-04T19:50:50.053Z,1.48
2022-08-04T19:53:43.211Z,1.40
2022-08-04T19:56:40.883Z,1.30
2022-08-04T19:59:32.317Z,1.17
2022-08-04T20:02:20.074Z,1.38
2022-08-04T20:05:08.719Z,1.55
2022-08-04T20:07:56.757Z,1.25
2022-08-04T20:10:51.551Z,1.60
2022-08-04T20:13:41.409Z,1.98
2022-08-04T20:16:30.917Z,2.00
2022-08-04T20:19:18.370Z,1.83
2022-08-04T20:22:06.052Z,1.60
2022-08-04T20:25:27.407Z,1.67
2022-08-04T20:28:36.144Z,1.60
2022-08-04T20:31:31.680Z,1.70
2022-08-04T20:34:19.233Z,1.63
2022-08-04T20:37:10.253Z,1.33
2022-08-04T20:39:59.589Z,1.45
2022-08-04T20:42:50.492Z,1.50
2022-08-04T20:45:55.945Z,1.50
2022-08-04T20:48:46.883Z,1.42
2022-08-04T20:51:39.732Z,1.58
2022-08-04T20:54:27.951Z,1.80
2022-08-04T20:57:18.720Z,1.70
2022-08-04T21:00:29.750Z,1.77
2022-08-04T21:03:17.791Z,1.50
2022-08-04T21:06:08.249Z,1.23
2022-08-04T21:08:57.317Z,1.50
2022-08-04T21:11:47.316Z,1.58
2022-08-04T21:14:38.160Z,1.65
2022-08-04T21:17:59.597Z,1.80
2022-08-04T21:20:36.132Z,1.60
2022-08-04T21:23:33.929Z,1.73
2022-08-04T21:26:26.110Z,1.50
2022-08-04T21:29:13.465Z,1.52
2022-08-04T21:32:07.764Z,1.52
2022-08-04T21:34:57.688Z,1.40
2022-08-04T21:37:56.641Z,1.50
2022-08-04T21:40:53.626Z,1.48
2022-08-04T21:43:42.481Z,1.60
2022-08-04T21:46:31.359Z,1.83
2022-08-04T21:49:18.913Z,1.60
2022-08-04T21:52:07.618Z,1.67
2022-08-04T21:54:58.191Z,1.50
2022-08-04T21:57:51.503Z,1.33
2022-08-04T22:00:39.213Z,1.55
2022-08-04T22:03:53.590Z,1.70
2022-08-04T22:06:34.643Z,1.70
2022-08-04T22:09:22.364Z,1.80
2022-08-04T22:15:22.859Z,1.50
2022-08-04T22:18:28.031Z,1.48
2022-08-04T22:21:15.576Z,1.80
2022-08-04T22:24:02.927Z,1.60
2022-08-04T22:26:51.105Z,1.20
2022-08-04T22:29:39.251Z,1.90
2022-08-04T22:32:28.083Z,1.73
2022-08-04T22:35:42.945Z,1.60
2022-08-04T22:38:41.786Z,1.65
2022-08-04T22:41:34.215Z,1.45
2022-08-04T22:44:36.575Z,1.58
2022-08-04T22:47:25.563Z,1.30
2022-08-04T22:50:26.926Z,1.40
2022-08-04T22:53:17.769Z,1.40
2022-08-04T22:56:10.684Z,1.30
2022-08-04T22:58:58.782Z,1.20
2022-08-04T23:01:59.243Z,1.42
2022-08-04T23:04:54.096Z,1.40
2022-08-04T23:07:49.037Z,1.50
2022-08-04T23:10:37.247Z,1.42
2022-08-04T23:13:29.166Z,1.60
2022-08-04T23:16:16.990Z,1.45
2022-08-04T23:19:09.694Z,1.52
2022-08-04T23:22:01.691Z,1.42
2022-08-04T23:24:51.731Z,1.30
2022-08-04T23:27:43.695Z,1.40
2022-08-04T23:30:31.466Z,1.40
2022-08-04T23:33:18.768Z,1.30
2022-08-04T23:36:06.798Z,1.40
2022-08-04T23:38:54.076Z,1.45
2022-08-04T23:41:53.524Z,1.40
2022-08-04T23:44:41.999Z,1.52
2022-08-04T23:48:15.397Z,1.55
2022-08-04T23:50:40.854Z,1.20
2022-08-04T23:53:29.840Z,1.35
2022-08-04T23:56:20.062Z,1.02
2022-08-04T23:59:23.147Z,1.50
